sensor_id;sensor_type;location;lat;lon;timestamp;P1;durP1;ratioP1;P2;durP2;ratioP2
57627;SDS011;43451;49.060;10.616;2023-12-20T00:00:59;5.63;;;3.55;;
57627;SDS011;43451;49.060;10.616;2023-12-20T00:03:24;6.32;;;3.60;;
57627;SDS011;43451;49.060;10.616;2023-12-20T00:05:50;5.72;;;3.40;;
57627;SDS011;43451;49.060;10.616;2023-12-20T00:08:16;5.32;;;3.50;;
57627;SDS011;43451;49.060;10.616;2023-12-20T00:10:42;5.35;;;3.85;;
57627;SDS011;43451;49.060;10.616;2023-12-20T00:13:08;6.05;;;3.15;;
57627;SDS011;43451;49.060;10.616;2023-12-20T00:15:34;4.78;;;3.58;;
57627;SDS011;43451;49.060;10.616;2023-12-20T00:18:00;5.50;;;3.47;;
57627;SDS011;43451;49.060;10.616;2023-12-20T00:20:26;4.78;;;3.28;;
57627;SDS011;43451;49.060;10.616;2023-12-20T00:22:52;4.50;;;3.28;;
57627;SDS011;43451;49.060;10.616;2023-12-20T00:25:18;5.05;;;3.15;;
57627;SDS011;43451;49.060;10.616;2023-12-20T00:27:44;5.03;;;3.33;;
57627;SDS011;43451;49.060;10.616;2023-12-20T00:30:09;4.30;;;3.28;;
57627;SDS011;43451;49.060;10.616;2023-12-20T00:32:35;4.45;;;3.10;;
57627;SDS011;43451;49.060;10.616;2023-12-20T00:35:01;3.95;;;3.10;;
57627;SDS011;43451;49.060;10.616;2023-12-20T00:37:26;4.97;;;3.20;;
57627;SDS011;43451;49.060;10.616;2023-12-20T00:39:52;3.92;;;2.92;;
57627;SDS011;43451;49.060;10.616;2023-12-20T00:42:18;5.28;;;3.08;;
57627;SDS011;43451;49.060;10.616;2023-12-20T00:44:43;5.10;;;3.10;;
57627;SDS011;43451;49.060;10.616;2023-12-20T00:47:09;4.38;;;3.20;;
57627;SDS011;43451;49.060;10.616;2023-12-20T00:49:35;4.25;;;2.92;;
57627;SDS011;43451;49.060;10.616;2023-12-20T00:52:00;3.38;;;2.55;;
57627;SDS011;43451;49.060;10.616;2023-12-20T00:54:26;3.75;;;2.58;;
57627;SDS011;43451;49.060;10.616;2023-12-20T00:56:51;5.25;;;2.67;;
57627;SDS011;43451;49.060;10.616;2023-12-20T00:59:17;4.35;;;2.65;;
57627;SDS011;43451;49.060;10.616;2023-12-20T01:01:43;4.35;;;2.90;;
57627;SDS011;43451;49.060;10.616;2023-12-20T01:04:09;4.57;;;2.65;;
57627;SDS011;43451;49.060;10.616;2023-12-20T01:06:35;5.93;;;3.15;;
57627;SDS011;43451;49.060;10.616;2023-12-20T01:09:00;4.93;;;2.90;;
57627;SDS011;43451;49.060;10.616;2023-12-20T01:11:26;4.47;;;2.85;;
57627;SDS011;43451;49.060;10.616;2023-12-20T01:13:51;5.32;;;2.90;;
57627;SDS011;43451;49.060;10.616;2023-12-20T01:16:17;4.18;;;2.88;;
57627;SDS011;43451;49.060;10.616;2023-12-20T01:18:42;4.85;;;2.92;;
57627;SDS011;43451;49.060;10.616;2023-12-20T01:21:08;5.13;;;3.05;;
57627;SDS011;43451;49.060;10.616;2023-12-20T01:23:33;5.38;;;3.17;;
57627;SDS011;43451;49.060;10.616;2023-12-20T01:25:59;3.97;;;2.92;;
57627;SDS011;43451;49.060;10.616;2023-12-20T01:28:27;5.13;;;3.33;;
57627;SDS011;43451;49.060;10.616;2023-12-20T01:30:53;6.80;;;2.80;;
57627;SDS011;43451;49.060;10.616;2023-12-20T01:33:19;4.93;;;3.10;;
57627;SDS011;43451;49.060;10.616;2023-12-20T01:35:44;4.15;;;2.70;;
57627;SDS011;43451;49.060;10.616;2023-12-20T01:38:10;4.95;;;2.85;;
57627;SDS011;43451;49.060;10.616;2023-12-20T01:40:35;4.13;;;2.80;;
57627;SDS011;43451;49.060;10.616;2023-12-20T01:43:10;4.57;;;2.80;;
57627;SDS011;43451;49.060;10.616;2023-12-20T01:45:37;3.63;;;2.75;;
57627;SDS011;43451;49.060;10.616;2023-12-20T01:48:03;4.75;;;2.95;;
57627;SDS011;43451;49.060;10.616;2023-12-20T01:50:31;4.65;;;3.00;;
57627;SDS011;43451;49.060;10.616;2023-12-20T01:52:58;4.10;;;2.83;;
57627;SDS011;43451;49.060;10.616;2023-12-20T01:55:27;5.18;;;2.70;;
57627;SDS011;43451;49.060;10.616;2023-12-20T01:57:54;3.78;;;2.55;;
57627;SDS011;43451;49.060;10.616;2023-12-20T02:00:22;4.20;;;2.70;;
57627;SDS011;43451;49.060;10.616;2023-12-20T02:02:51;3.13;;;2.30;;
57627;SDS011;43451;49.060;10.616;2023-12-20T02:05:18;6.20;;;2.80;;
57627;SDS011;43451;49.060;10.616;2023-12-20T02:07:44;4.88;;;2.80;;
57627;SDS011;43451;49.060;10.616;2023-12-20T02:10:09;3.90;;;2.78;;
57627;SDS011;43451;49.060;10.616;2023-12-20T02:12:35;3.80;;;2.70;;
57627;SDS011;43451;49.060;10.616;2023-12-20T02:15:01;3.58;;;2.80;;
57627;SDS011;43451;49.060;10.616;2023-12-20T02:17:27;4.03;;;2.70;;
57627;SDS011;43451;49.060;10.616;2023-12-20T02:19:53;5.35;;;2.80;;
57627;SDS011;43451;49.060;10.616;2023-12-20T02:22:18;5.50;;;2.97;;
57627;SDS011;43451;49.060;10.616;2023-12-20T02:24:44;4.63;;;2.97;;
57627;SDS011;43451;49.060;10.616;2023-12-20T02:27:09;3.58;;;2.72;;
57627;SDS011;43451;49.060;10.616;2023-12-20T02:29:35;4.20;;;2.92;;
57627;SDS011;43451;49.060;10.616;2023-12-20T02:32:01;4.22;;;2.83;;
57627;SDS011;43451;49.060;10.616;2023-12-20T02:34:28;5.53;;;2.95;;
57627;SDS011;43451;49.060;10.616;2023-12-20T02:36:53;5.25;;;2.95;;
57627;SDS011;43451;49.060;10.616;2023-12-20T02:39:19;4.22;;;2.75;;
57627;SDS011;43451;49.060;10.616;2023-12-20T02:41:46;4.03;;;2.83;;
57627;SDS011;43451;49.060;10.616;2023-12-20T02:44:12;5.00;;;2.75;;
57627;SDS011;43451;49.060;10.616;2023-12-20T02:46:37;3.83;;;2.63;;
57627;SDS011;43451;49.060;10.616;2023-12-20T02:49:03;4.53;;;2.80;;
57627;SDS011;43451;49.060;10.616;2023-12-20T02:51:28;4.30;;;2.80;;
57627;SDS011;43451;49.060;10.616;2023-12-20T02:53:54;3.63;;;2.60;;
57627;SDS011;43451;49.060;10.616;2023-12-20T02:56:19;3.50;;;2.30;;
57627;SDS011;43451;49.060;10.616;2023-12-20T02:58:45;2.80;;;2.22;;
57627;SDS011;43451;49.060;10.616;2023-12-20T03:01:10;2.95;;;2.00;;
57627;SDS011;43451;49.060;10.616;2023-12-20T03:03:36;2.72;;;2.05;;
57627;SDS011;43451;49.060;10.616;2023-12-20T03:06:01;3.17;;;1.90;;
57627;SDS011;43451;49.060;10.616;2023-12-20T03:08:27;2.92;;;1.77;;
57627;SDS011;43451;49.060;10.616;2023-12-20T03:10:52;2.85;;;1.60;;
57627;SDS011;43451;49.060;10.616;2023-12-20T03:13:18;2.40;;;1.50;;
57627;SDS011;43451;49.060;10.616;2023-12-20T03:15:45;1.70;;;1.30;;
57627;SDS011;43451;49.060;10.616;2023-12-20T03:18:10;1.48;;;1.30;;
57627;SDS011;43451;49.060;10.616;2023-12-20T03:20:36;1.70;;;1.30;;
57627;SDS011;43451;49.060;10.616;2023-12-20T03:23:02;2.95;;;1.63;;
57627;SDS011;43451;49.060;10.616;2023-12-20T03:25:28;2.10;;;1.40;;
57627;SDS011;43451;49.060;10.616;2023-12-20T03:27:54;1.70;;;1.42;;
57627;SDS011;43451;49.060;10.616;2023-12-20T03:30:19;3.17;;;1.50;;
57627;SDS011;43451;49.060;10.616;2023-12-20T03:32:45;1.90;;;1.40;;
57627;SDS011;43451;49.060;10.616;2023-12-20T03:35:12;1.52;;;1.40;;
57627;SDS011;43451;49.060;10.616;2023-12-20T03:37:37;1.90;;;1.40;;
57627;SDS011;43451;49.060;10.616;2023-12-20T03:40:03;1.85;;;1.40;;
57627;SDS011;43451;49.060;10.616;2023-12-20T03:42:28;1.45;;;1.35;;
57627;SDS011;43451;49.060;10.616;2023-12-20T03:44:54;1.40;;;1.30;;
57627;SDS011;43451;49.060;10.616;2023-12-20T03:47:19;1.60;;;1.33;;
57627;SDS011;43451;49.060;10.616;2023-12-20T03:49:45;1.55;;;1.30;;
57627;SDS011;43451;49.060;10.616;2023-12-20T03:52:10;1.33;;;1.00;;
57627;SDS011;43451;49.060;10.616;2023-12-20T03:54:36;1.10;;;1.00;;
57627;SDS011;43451;49.060;10.616;2023-12-20T03:57:01;1.20;;;1.10;;
57627;SDS011;43451;49.060;10.616;2023-12-20T03:59:27;0.95;;;0.90;;
57627;SDS011;43451;49.060;10.616;2023-12-20T04:01:52;1.20;;;0.90;;
57627;SDS011;43451;49.060;10.616;2023-12-20T04:04:18;0.82;;;0.70;;
57627;SDS011;43451;49.060;10.616;2023-12-20T04:06:44;0.73;;;0.70;;
57627;SDS011;43451;49.060;10.616;2023-12-20T04:09:10;0.80;;;0.80;;
57627;SDS011;43451;49.060;10.616;2023-12-20T04:11:36;0.68;;;0.60;;
57627;SDS011;43451;49.060;10.616;2023-12-20T04:14:02;0.60;;;0.60;;
57627;SDS011;43451;49.060;10.616;2023-12-20T04:16:27;0.55;;;0.50;;
57627;SDS011;43451;49.060;10.616;2023-12-20T04:18:53;0.70;;;0.70;;
57627;SDS011;43451;49.060;10.616;2023-12-20T04:21:18;0.82;;;0.60;;
57627;SDS011;43451;49.060;10.616;2023-12-20T04:23:44;0.70;;;0.70;;
57627;SDS011;43451;49.060;10.616;2023-12-20T04:26:10;0.73;;;0.60;;
57627;SDS011;43451;49.060;10.616;2023-12-20T04:28:35;0.70;;;0.70;;
57627;SDS011;43451;49.060;10.616;2023-12-20T04:31:01;0.63;;;0.60;;
57627;SDS011;43451;49.060;10.616;2023-12-20T04:36:01;0.90;;;0.70;;
57627;SDS011;43451;49.060;10.616;2023-12-20T04:38:26;1.00;;;0.68;;
57627;SDS011;43451;49.060;10.616;2023-12-20T04:40:52;0.57;;;0.57;;
57627;SDS011;43451;49.060;10.616;2023-12-20T04:43:17;1.05;;;0.60;;
57627;SDS011;43451;49.060;10.616;2023-12-20T04:45:43;0.65;;;0.63;;
57627;SDS011;43451;49.060;10.616;2023-12-20T04:48:08;1.15;;;0.70;;
57627;SDS011;43451;49.060;10.616;2023-12-20T04:50:34;0.60;;;0.60;;
57627;SDS011;43451;49.060;10.616;2023-12-20T04:52:59;0.60;;;0.50;;
57627;SDS011;43451;49.060;10.616;2023-12-20T04:55:25;0.63;;;0.40;;
57627;SDS011;43451;49.060;10.616;2023-12-20T04:57:50;0.75;;;0.50;;
57627;SDS011;43451;49.060;10.616;2023-12-20T05:00:16;0.32;;;0.32;;
57627;SDS011;43451;49.060;10.616;2023-12-20T05:02:42;0.50;;;0.50;;
57627;SDS011;43451;49.060;10.616;2023-12-20T05:05:07;0.50;;;0.50;;
57627;SDS011;43451;49.060;10.616;2023-12-20T05:07:33;0.50;;;0.43;;
57627;SDS011;43451;49.060;10.616;2023-12-20T05:09:59;0.70;;;0.60;;
57627;SDS011;43451;49.060;10.616;2023-12-20T05:12:24;0.45;;;0.45;;
57627;SDS011;43451;49.060;10.616;2023-12-20T05:14:51;0.57;;;0.40;;
57627;SDS011;43451;49.060;10.616;2023-12-20T05:17:17;0.77;;;0.50;;
57627;SDS011;43451;49.060;10.616;2023-12-20T05:19:43;0.40;;;0.40;;
57627;SDS011;43451;49.060;10.616;2023-12-20T05:22:08;0.50;;;0.50;;
57627;SDS011;43451;49.060;10.616;2023-12-20T05:24:34;0.40;;;0.40;;
57627;SDS011;43451;49.060;10.616;2023-12-20T05:27:00;0.50;;;0.50;;
57627;SDS011;43451;49.060;10.616;2023-12-20T05:29:25;0.60;;;0.60;;
57627;SDS011;43451;49.060;10.616;2023-12-20T05:31:51;0.60;;;0.57;;
57627;SDS011;43451;49.060;10.616;2023-12-20T05:34:16;0.40;;;0.40;;
57627;SDS011;43451;49.060;10.616;2023-12-20T05:36:42;0.52;;;0.50;;
57627;SDS011;43451;49.060;10.616;2023-12-20T05:39:07;1.05;;;0.60;;
57627;SDS011;43451;49.060;10.616;2023-12-20T05:41:33;0.60;;;0.60;;
57627;SDS011;43451;49.060;10.616;2023-12-20T05:43:59;0.50;;;0.50;;
57627;SDS011;43451;49.060;10.616;2023-12-20T05:46:24;0.60;;;0.50;;
57627;SDS011;43451;49.060;10.616;2023-12-20T05:48:50;0.50;;;0.50;;
57627;SDS011;43451;49.060;10.616;2023-12-20T05:51:17;0.50;;;0.50;;
57627;SDS011;43451;49.060;10.616;2023-12-20T05:53:43;0.85;;;0.60;;
57627;SDS011;43451;49.060;10.616;2023-12-20T05:56:09;0.60;;;0.60;;
57627;SDS011;43451;49.060;10.616;2023-12-20T05:58:34;0.60;;;0.60;;
57627;SDS011;43451;49.060;10.616;2023-12-20T06:01:00;0.93;;;0.60;;
57627;SDS011;43451;49.060;10.616;2023-12-20T06:03:29;0.75;;;0.60;;
57627;SDS011;43451;49.060;10.616;2023-12-20T06:05:54;0.73;;;0.60;;
57627;SDS011;43451;49.060;10.616;2023-12-20T06:08:20;0.57;;;0.57;;
57627;SDS011;43451;49.060;10.616;2023-12-20T06:10:45;1.45;;;0.60;;
57627;SDS011;43451;49.060;10.616;2023-12-20T06:13:11;0.60;;;0.50;;
57627;SDS011;43451;49.060;10.616;2023-12-20T06:15:38;0.60;;;0.60;;
57627;SDS011;43451;49.060;10.616;2023-12-20T06:18:05;0.60;;;0.60;;
57627;SDS011;43451;49.060;10.616;2023-12-20T06:20:31;0.73;;;0.50;;
57627;SDS011;43451;49.060;10.616;2023-12-20T06:22:56;0.60;;;0.52;;
57627;SDS011;43451;49.060;10.616;2023-12-20T06:25:22;0.55;;;0.50;;
57627;SDS011;43451;49.060;10.616;2023-12-20T06:27:47;1.90;;;0.60;;
57627;SDS011;43451;49.060;10.616;2023-12-20T06:30:13;0.50;;;0.50;;
57627;SDS011;43451;49.060;10.616;2023-12-20T06:32:38;0.80;;;0.63;;
57627;SDS011;43451;49.060;10.616;2023-12-20T06:35:04;0.75;;;0.70;;
57627;SDS011;43451;49.060;10.616;2023-12-20T06:37:30;0.70;;;0.70;;
57627;SDS011;43451;49.060;10.616;2023-12-20T06:39:56;2.05;;;0.90;;
57627;SDS011;43451;49.060;10.616;2023-12-20T06:42:22;0.70;;;0.70;;
57627;SDS011;43451;49.060;10.616;2023-12-20T06:44:48;0.75;;;0.75;;
57627;SDS011;43451;49.060;10.616;2023-12-20T06:47:13;0.80;;;0.80;;
57627;SDS011;43451;49.060;10.616;2023-12-20T06:49:39;0.80;;;0.80;;
57627;SDS011;43451;49.060;10.616;2023-12-20T06:52:05;1.15;;;0.90;;
57627;SDS011;43451;49.060;10.616;2023-12-20T06:54:31;1.00;;;0.80;;
57627;SDS011;43451;49.060;10.616;2023-12-20T06:56:59;0.80;;;0.80;;
57627;SDS011;43451;49.060;10.616;2023-12-20T06:59:25;1.00;;;0.90;;
57627;SDS011;43451;49.060;10.616;2023-12-20T07:01:51;0.90;;;0.90;;
57627;SDS011;43451;49.060;10.616;2023-12-20T07:04:16;1.00;;;0.90;;
57627;SDS011;43451;49.060;10.616;2023-12-20T07:06:45;0.93;;;0.90;;
57627;SDS011;43451;49.060;10.616;2023-12-20T07:09:12;1.15;;;1.05;;
57627;SDS011;43451;49.060;10.616;2023-12-20T07:11:39;0.98;;;0.90;;
57627;SDS011;43451;49.060;10.616;2023-12-20T07:14:04;1.00;;;0.90;;
57627;SDS011;43451;49.060;10.616;2023-12-20T07:16:30;2.15;;;1.15;;
57627;SDS011;43451;49.060;10.616;2023-12-20T07:18:55;1.95;;;1.10;;
57627;SDS011;43451;49.060;10.616;2023-12-20T07:21:22;1.52;;;1.00;;
57627;SDS011;43451;49.060;10.616;2023-12-20T07:23:48;0.90;;;0.90;;
57627;SDS011;43451;49.060;10.616;2023-12-20T07:26:13;1.10;;;1.00;;
57627;SDS011;43451;49.060;10.616;2023-12-20T07:28:40;0.93;;;0.90;;
57627;SDS011;43451;49.060;10.616;2023-12-20T07:31:05;1.00;;;1.00;;
57627;SDS011;43451;49.060;10.616;2023-12-20T07:33:31;1.50;;;1.20;;
57627;SDS011;43451;49.060;10.616;2023-12-20T07:35:57;1.30;;;1.20;;
57627;SDS011;43451;49.060;10.616;2023-12-20T07:38:23;1.35;;;1.02;;
57627;SDS011;43451;49.060;10.616;2023-12-20T07:40:49;1.48;;;1.30;;
57627;SDS011;43451;49.060;10.616;2023-12-20T07:43:14;1.30;;;1.20;;
57627;SDS011;43451;49.060;10.616;2023-12-20T07:45:40;1.38;;;1.27;;
57627;SDS011;43451;49.060;10.616;2023-12-20T07:48:06;1.77;;;1.40;;
57627;SDS011;43451;49.060;10.616;2023-12-20T07:50:32;2.65;;;1.45;;
57627;SDS011;43451;49.060;10.616;2023-12-20T07:52:58;1.60;;;1.50;;
57627;SDS011;43451;49.060;10.616;2023-12-20T07:55:26;1.60;;;1.50;;
57627;SDS011;43451;49.060;10.616;2023-12-20T07:57:52;1.60;;;1.50;;
57627;SDS011;43451;49.060;10.616;2023-12-20T08:00:18;1.40;;;1.30;;
57627;SDS011;43451;49.060;10.616;2023-12-20T08:02:44;2.65;;;1.58;;
57627;SDS011;43451;49.060;10.616;2023-12-20T08:05:10;3.15;;;1.48;;
57627;SDS011;43451;49.060;10.616;2023-12-20T08:07:35;1.80;;;1.70;;
57627;SDS011;43451;49.060;10.616;2023-12-20T08:10:01;1.80;;;1.70;;
57627;SDS011;43451;49.060;10.616;2023-12-20T08:12:27;2.10;;;1.90;;
57627;SDS011;43451;49.060;10.616;2023-12-20T08:14:53;2.72;;;2.45;;
57627;SDS011;43451;49.060;10.616;2023-12-20T08:17:19;2.50;;;2.10;;
57627;SDS011;43451;49.060;10.616;2023-12-20T08:19:44;2.70;;;2.30;;
57627;SDS011;43451;49.060;10.616;2023-12-20T08:22:10;2.50;;;2.30;;
57627;SDS011;43451;49.060;10.616;2023-12-20T08:24:36;2.47;;;2.28;;
57627;SDS011;43451;49.060;10.616;2023-12-20T08:27:02;2.55;;;2.28;;
57627;SDS011;43451;49.060;10.616;2023-12-20T08:29:27;2.28;;;1.90;;
57627;SDS011;43451;49.060;10.616;2023-12-20T08:31:54;3.03;;;2.15;;
57627;SDS011;43451;49.060;10.616;2023-12-20T08:34:20;3.00;;;2.08;;
57627;SDS011;43451;49.060;10.616;2023-12-20T08:36:45;2.40;;;2.20;;
57627;SDS011;43451;49.060;10.616;2023-12-20T08:39:11;2.67;;;2.42;;
57627;SDS011;43451;49.060;10.616;2023-12-20T08:41:36;2.90;;;2.60;;
57627;SDS011;43451;49.060;10.616;2023-12-20T08:44:02;2.55;;;2.22;;
57627;SDS011;43451;49.060;10.616;2023-12-20T08:46:28;2.83;;;2.35;;
57627;SDS011;43451;49.060;10.616;2023-12-20T08:48:53;2.70;;;2.10;;
57627;SDS011;43451;49.060;10.616;2023-12-20T08:51:19;2.65;;;2.17;;
57627;SDS011;43451;49.060;10.616;2023-12-20T08:53:46;4.03;;;2.35;;
57627;SDS011;43451;49.060;10.616;2023-12-20T08:56:12;2.83;;;2.17;;
57627;SDS011;43451;49.060;10.616;2023-12-20T08:58:38;2.33;;;2.13;;
57627;SDS011;43451;49.060;10.616;2023-12-20T09:01:03;2.35;;;2.10;;
57627;SDS011;43451;49.060;10.616;2023-12-20T09:03:29;4.38;;;2.00;;
57627;SDS011;43451;49.060;10.616;2023-12-20T09:05:54;2.20;;;1.98;;
57627;SDS011;43451;49.060;10.616;2023-12-20T09:08:20;1.92;;;1.70;;
57627;SDS011;43451;49.060;10.616;2023-12-20T09:10:45;1.80;;;1.65;;
57627;SDS011;43451;49.060;10.616;2023-12-20T09:13:11;2.10;;;1.90;;
57627;SDS011;43451;49.060;10.616;2023-12-20T09:15:36;1.90;;;1.75;;
57627;SDS011;43451;49.060;10.616;2023-12-20T09:18:05;3.03;;;1.70;;
57627;SDS011;43451;49.060;10.616;2023-12-20T09:20:31;2.25;;;2.03;;
57627;SDS011;43451;49.060;10.616;2023-12-20T09:22:56;1.95;;;1.70;;
57627;SDS011;43451;49.060;10.616;2023-12-20T09:25:22;2.00;;;1.60;;
57627;SDS011;43451;49.060;10.616;2023-12-20T09:27:48;2.75;;;1.80;;
57627;SDS011;43451;49.060;10.616;2023-12-20T09:30:13;2.45;;;1.67;;
57627;SDS011;43451;49.060;10.616;2023-12-20T09:32:39;3.63;;;1.85;;
57627;SDS011;43451;49.060;10.616;2023-12-20T09:35:05;2.97;;;1.90;;
57627;SDS011;43451;49.060;10.616;2023-12-20T09:37:31;4.50;;;1.95;;
57627;SDS011;43451;49.060;10.616;2023-12-20T09:39:57;3.17;;;2.10;;
57627;SDS011;43451;49.060;10.616;2023-12-20T09:45:14;2.97;;;1.70;;
57627;SDS011;43451;49.060;10.616;2023-12-20T09:47:43;2.43;;;2.23;;
57627;SDS011;43451;49.060;10.616;2023-12-20T09:50:09;4.15;;;2.80;;
57627;SDS011;43451;49.060;10.616;2023-12-20T09:52:36;5.32;;;2.92;;
57627;SDS011;43451;49.060;10.616;2023-12-20T09:55:04;3.92;;;2.90;;
57627;SDS011;43451;49.060;10.616;2023-12-20T09:57:31;4.70;;;3.03;;
57627;SDS011;43451;49.060;10.616;2023-12-20T09:59:57;4.35;;;3.10;;
57627;SDS011;43451;49.060;10.616;2023-12-20T10:02:24;5.60;;;3.20;;
57627;SDS011;43451;49.060;10.616;2023-12-20T10:04:54;4.38;;;3.20;;
57627;SDS011;43451;49.060;10.616;2023-12-20T10:07:19;5.00;;;2.92;;
57627;SDS011;43451;49.060;10.616;2023-12-20T10:09:45;4.28;;;3.58;;
57627;SDS011;43451;49.060;10.616;2023-12-20T10:12:12;5.53;;;3.20;;
57627;SDS011;43451;49.060;10.616;2023-12-20T10:14:38;5.25;;;3.20;;
57627;SDS011;43451;49.060;10.616;2023-12-20T10:17:04;4.63;;;3.33;;
57627;SDS011;43451;49.060;10.616;2023-12-20T10:19:31;4.90;;;3.45;;
57627;SDS011;43451;49.060;10.616;2023-12-20T10:21:58;4.03;;;2.75;;
57627;SDS011;43451;49.060;10.616;2023-12-20T10:24:24;4.85;;;3.05;;
57627;SDS011;43451;49.060;10.616;2023-12-20T10:27:00;4.35;;;2.88;;
57627;SDS011;43451;49.060;10.616;2023-12-20T10:29:36;4.57;;;3.00;;
57627;SDS011;43451;49.060;10.616;2023-12-20T10:32:24;5.82;;;3.15;;
57627;SDS011;43451;49.060;10.616;2023-12-20T10:34:49;4.55;;;2.92;;
57627;SDS011;43451;49.060;10.616;2023-12-20T10:37:16;5.53;;;3.35;;
57627;SDS011;43451;49.060;10.616;2023-12-20T10:39:51;3.95;;;3.08;;
57627;SDS011;43451;49.060;10.616;2023-12-20T10:42:21;5.53;;;3.13;;
57627;SDS011;43451;49.060;10.616;2023-12-20T10:44:47;3.65;;;2.75;;
57627;SDS011;43451;49.060;10.616;2023-12-20T10:47:14;4.82;;;2.80;;
57627;SDS011;43451;49.060;10.616;2023-12-20T10:49:40;4.03;;;2.50;;
57627;SDS011;43451;49.060;10.616;2023-12-20T10:52:07;5.43;;;2.22;;
57627;SDS011;43451;49.060;10.616;2023-12-20T10:54:34;3.83;;;2.10;;
57627;SDS011;43451;49.060;10.616;2023-12-20T10:56:59;3.75;;;2.10;;
57627;SDS011;43451;49.060;10.616;2023-12-20T10:59:29;4.82;;;2.22;;
57627;SDS011;43451;49.060;10.616;2023-12-20T11:01:58;4.35;;;2.00;;
57627;SDS011;43451;49.060;10.616;2023-12-20T11:07:58;4.18;;;2.20;;
57627;SDS011;43451;49.060;10.616;2023-12-20T11:13:40;4.13;;;2.00;;
57627;SDS011;43451;49.060;10.616;2023-12-20T11:16:20;4.93;;;2.30;;
57627;SDS011;43451;49.060;10.616;2023-12-20T11:18:46;6.40;;;2.20;;
57627;SDS011;43451;49.060;10.616;2023-12-20T11:21:12;3.97;;;2.17;;
57627;SDS011;43451;49.060;10.616;2023-12-20T11:23:39;4.20;;;2.28;;
57627;SDS011;43451;49.060;10.616;2023-12-20T11:28:32;3.67;;;2.03;;
57627;SDS011;43451;49.060;10.616;2023-12-20T11:30:59;3.88;;;2.40;;
57627;SDS011;43451;49.060;10.616;2023-12-20T11:33:32;3.75;;;1.90;;
57627;SDS011;43451;49.060;10.616;2023-12-20T11:36:01;8.40;;;3.05;;
57627;SDS011;43451;49.060;10.616;2023-12-20T11:38:28;4.53;;;1.95;;
57627;SDS011;43451;49.060;10.616;2023-12-20T11:41:02;4.53;;;1.90;;
57627;SDS011;43451;49.060;10.616;2023-12-20T11:43:38;4.65;;;2.05;;
57627;SDS011;43451;49.060;10.616;2023-12-20T11:46:07;8.05;;;1.90;;
57627;SDS011;43451;49.060;10.616;2023-12-20T11:48:35;4.55;;;2.00;;
57627;SDS011;43451;49.060;10.616;2023-12-20T11:51:02;5.00;;;1.70;;
57627;SDS011;43451;49.060;10.616;2023-12-20T11:53:29;3.63;;;1.45;;
57627;SDS011;43451;49.060;10.616;2023-12-20T11:55:56;4.37;;;1.93;;
57627;SDS011;43451;49.060;10.616;2023-12-20T11:58:21;4.15;;;1.80;;
57627;SDS011;43451;49.060;10.616;2023-12-20T12:00:48;6.88;;;1.77;;
57627;SDS011;43451;49.060;10.616;2023-12-20T12:03:14;4.00;;;1.70;;
57627;SDS011;43451;49.060;10.616;2023-12-20T12:05:40;6.55;;;1.75;;
57627;SDS011;43451;49.060;10.616;2023-12-20T12:08:06;5.00;;;1.73;;
57627;SDS011;43451;49.060;10.616;2023-12-20T12:10:33;4.47;;;1.80;;
57627;SDS011;43451;49.060;10.616;2023-12-20T12:12:58;6.85;;;1.80;;
57627;SDS011;43451;49.060;10.616;2023-12-20T12:15:25;4.45;;;1.65;;
57627;SDS011;43451;49.060;10.616;2023-12-20T12:17:56;3.35;;;1.77;;
57627;SDS011;43451;49.060;10.616;2023-12-20T12:20:23;5.43;;;1.90;;
57627;SDS011;43451;49.060;10.616;2023-12-20T12:23:03;5.72;;;2.15;;
57627;SDS011;43451;49.060;10.616;2023-12-20T12:25:30;4.18;;;1.70;;
57627;SDS011;43451;49.060;10.616;2023-12-20T12:27:58;4.50;;;1.80;;
57627;SDS011;43451;49.060;10.616;2023-12-20T12:30:24;5.00;;;1.85;;
57627;SDS011;43451;49.060;10.616;2023-12-20T12:32:53;4.35;;;1.85;;
57627;SDS011;43451;49.060;10.616;2023-12-20T12:35:19;4.47;;;2.03;;
57627;SDS011;43451;49.060;10.616;2023-12-20T12:37:45;4.00;;;1.90;;
57627;SDS011;43451;49.060;10.616;2023-12-20T12:40:12;6.43;;;2.00;;
57627;SDS011;43451;49.060;10.616;2023-12-20T12:42:38;5.25;;;2.20;;
57627;SDS011;43451;49.060;10.616;2023-12-20T12:45:06;7.13;;;1.90;;
57627;SDS011;43451;49.060;10.616;2023-12-20T12:47:32;5.82;;;2.00;;
57627;SDS011;43451;49.060;10.616;2023-12-20T12:49:57;8.45;;;1.92;;
57627;SDS011;43451;49.060;10.616;2023-12-20T12:52:23;4.63;;;1.60;;
57627;SDS011;43451;49.060;10.616;2023-12-20T12:54:49;5.68;;;2.03;;
57627;SDS011;43451;49.060;10.616;2023-12-20T12:57:14;3.63;;;1.83;;
57627;SDS011;43451;49.060;10.616;2023-12-20T12:59:41;6.63;;;1.77;;
57627;SDS011;43451;49.060;10.616;2023-12-20T13:02:07;4.25;;;1.95;;
57627;SDS011;43451;49.060;10.616;2023-12-20T13:04:33;7.75;;;1.95;;
57627;SDS011;43451;49.060;10.616;2023-12-20T13:06:59;4.65;;;1.65;;
57627;SDS011;43451;49.060;10.616;2023-12-20T13:09:24;3.88;;;1.70;;
57627;SDS011;43451;49.060;10.616;2023-12-20T13:11:50;4.40;;;1.50;;
57627;SDS011;43451;49.060;10.616;2023-12-20T13:14:16;4.10;;;1.52;;
57627;SDS011;43451;49.060;10.616;2023-12-20T13:16:41;4.95;;;1.73;;
57627;SDS011;43451;49.060;10.616;2023-12-20T13:19:07;4.53;;;1.70;;
57627;SDS011;43451;49.060;10.616;2023-12-20T13:21:34;2.00;;;1.30;;
57627;SDS011;43451;49.060;10.616;2023-12-20T13:24:00;4.47;;;1.40;;
57627;SDS011;43451;49.060;10.616;2023-12-20T13:26:25;3.90;;;1.40;;
57627;SDS011;43451;49.060;10.616;2023-12-20T13:28:52;5.65;;;1.45;;
57627;SDS011;43451;49.060;10.616;2023-12-20T13:31:17;5.25;;;1.52;;
57627;SDS011;43451;49.060;10.616;2023-12-20T13:33:43;4.13;;;1.50;;
57627;SDS011;43451;49.060;10.616;2023-12-20T13:36:08;8.35;;;1.60;;
57627;SDS011;43451;49.060;10.616;2023-12-20T13:38:34;4.32;;;1.70;;
57627;SDS011;43451;49.060;10.616;2023-12-20T13:40:59;5.88;;;1.70;;
57627;SDS011;43451;49.060;10.616;2023-12-20T13:43:25;4.15;;;1.60;;
57627;SDS011;43451;49.060;10.616;2023-12-20T13:45:50;4.55;;;1.52;;
57627;SDS011;43451;49.060;10.616;2023-12-20T13:48:16;5.60;;;1.38;;
57627;SDS011;43451;49.060;10.616;2023-12-20T13:50:42;6.05;;;1.50;;
57627;SDS011;43451;49.060;10.616;2023-12-20T13:53:07;3.90;;;1.58;;
57627;SDS011;43451;49.060;10.616;2023-12-20T13:55:33;4.78;;;1.73;;
57627;SDS011;43451;49.060;10.616;2023-12-20T13:57:58;4.15;;;1.60;;
57627;SDS011;43451;49.060;10.616;2023-12-20T14:00:24;5.13;;;1.58;;
57627;SDS011;43451;49.060;10.616;2023-12-20T14:02:49;6.25;;;1.90;;
57627;SDS011;43451;49.060;10.616;2023-12-20T14:05:15;6.38;;;1.73;;
57627;SDS011;43451;49.060;10.616;2023-12-20T14:07:43;6.57;;;1.70;;
57627;SDS011;43451;49.060;10.616;2023-12-20T14:10:12;6.20;;;1.70;;
57627;SDS011;43451;49.060;10.616;2023-12-20T14:12:38;5.93;;;1.50;;
57627;SDS011;43451;49.060;10.616;2023-12-20T14:15:04;4.78;;;1.58;;
57627;SDS011;43451;49.060;10.616;2023-12-20T14:17:34;6.45;;;1.90;;
57627;SDS011;43451;49.060;10.616;2023-12-20T14:20:00;3.80;;;1.35;;
57627;SDS011;43451;49.060;10.616;2023-12-20T14:22:25;3.72;;;1.60;;
57627;SDS011;43451;49.060;10.616;2023-12-20T14:24:51;5.53;;;1.65;;
57627;SDS011;43451;49.060;10.616;2023-12-20T14:27:17;4.70;;;1.83;;
57627;SDS011;43451;49.060;10.616;2023-12-20T14:29:45;5.03;;;1.60;;
57627;SDS011;43451;49.060;10.616;2023-12-20T14:32:11;6.35;;;2.40;;
57627;SDS011;43451;49.060;10.616;2023-12-20T14:34:39;6.70;;;1.90;;
57627;SDS011;43451;49.060;10.616;2023-12-20T14:37:04;5.22;;;2.10;;
57627;SDS011;43451;49.060;10.616;2023-12-20T14:39:29;5.22;;;1.75;;
57627;SDS011;43451;49.060;10.616;2023-12-20T14:41:55;4.95;;;2.13;;